createdAt,value
2023-01-22T00:00:40.979Z,73688.31
2023-01-22T00:01:34.235Z,73696.28
2023-01-22T00:02:29.550Z,73692.28
2023-01-22T00:03:22.405Z,73692.28
2023-01-22T00:04:17.789Z,73692.28
2023-01-22T00:05:10.370Z,73688.31
2023-01-22T00:06:05.758Z,73692.28
2023-01-22T00:06:58.327Z,73690.28
2023-01-22T00:07:56.115Z,73692.28
2023-01-22T00:08:48.667Z,73690.28
2023-01-22T00:09:43.842Z,73692.28
2023-01-22T00:10:36.447Z,73692.28
2023-01-22T00:11:31.694Z,73692.28
2023-01-22T00:12:24.263Z,73680.31
2023-01-22T00:13:19.417Z,73680.31
2023-01-22T00:14:12.235Z,73680.31
2023-01-22T00:15:08.446Z,73680.31
2023-01-22T00:16:01.370Z,73680.31
2023-01-22T00:16:56.837Z,73676.31
2023-01-22T00:17:49.414Z,73672.34
2023-01-22T00:18:44.598Z,73680.31
2023-01-22T00:19:37.175Z,73672.34
2023-01-22T00:20:32.341Z,73670.34
2023-01-22T00:21:24.987Z,73670.34
2023-01-22T00:22:20.194Z,73672.34
2023-01-22T00:23:15.588Z,73662.34
2023-01-22T00:24:11.521Z,73656.34
2023-01-22T00:25:05.511Z,73658.34
2023-01-22T00:26:04.513Z,73658.34
2023-01-22T00:26:57.131Z,73652.38
2023-01-22T00:27:52.307Z,73652.38
2023-01-22T00:28:45.562Z,73642.38
2023-01-22T00:29:41.083Z,73638.38
2023-01-22T00:30:33.696Z,73632.41
2023-01-22T00:31:28.978Z,73628.41
2023-01-22T00:32:21.708Z,73618.44
2023-01-22T00:33:16.919Z,73612.44
2023-01-22T00:34:09.552Z,73608.44
2023-01-22T00:35:04.777Z,73600.47
2023-01-22T00:35:57.698Z,73602.47
2023-01-22T00:36:54.559Z,73600.47
2023-01-22T00:37:48.377Z,73598.47
2023-01-22T00:38:46.408Z,73600.47
2023-01-22T00:39:38.971Z,73598.47
2023-01-22T00:40:34.216Z,73600.47
2023-01-22T00:41:26.872Z,73612.44
2023-01-22T00:42:22.053Z,73614.44
2023-01-22T00:43:14.765Z,73620.41
2023-01-22T00:44:09.975Z,73628.41
2023-01-22T00:45:02.558Z,73632.41
2023-01-22T00:45:57.790Z,73632.41
2023-01-22T00:46:52.985Z,73644.38
2023-01-22T00:47:48.526Z,73638.38
2023-01-22T00:48:41.574Z,73644.38
2023-01-22T00:49:34.159Z,73648.38
2023-01-22T00:50:29.416Z,73652.38
2023-01-22T00:51:22.123Z,73652.38
2023-01-22T00:52:17.353Z,73652.38
2023-01-22T00:53:09.981Z,73652.38
2023-01-22T00:54:07.973Z,73652.38
2023-01-22T00:55:00.583Z,73656.34
2023-01-22T00:55:57.462Z,73660.34
2023-01-22T00:56:50.096Z,73660.34
2023-01-22T00:57:45.417Z,73656.34
2023-01-22T00:58:38.308Z,73664.34
2023-01-22T00:59:33.697Z,73664.34
2023-01-22T01:00:26.521Z,73670.34
2023-01-22T01:01:21.749Z,73670.34
2023-01-22T01:02:14.490Z,73676.31
2023-01-22T01:03:22.077Z,73674.31
2023-01-22T01:04:17.298Z,73668.34
2023-01-22T01:05:09.984Z,73668.34
2023-01-22T01:06:07.187Z,73668.34
2023-01-22T01:06:59.806Z,73668.34
2023-01-22T01:07:55.001Z,73670.34
2023-01-22T01:08:48.415Z,73662.34
2023-01-22T01:09:46.235Z,73670.34
2023-01-22T01:10:39.518Z,73654.38
2023-01-22T01:11:34.691Z,73648.38
2023-01-22T01:12:32.093Z,73638.38
2023-01-22T01:13:27.433Z,73620.41
2023-01-22T01:14:20.033Z,73620.41
2023-01-22T01:15:15.195Z,73608.44
2023-01-22T01:16:09.345Z,73596.47
2023-01-22T01:17:04.604Z,73590.47
2023-01-22T01:17:57.303Z,73578.50
2023-01-22T01:18:52.788Z,73576.50
2023-01-22T01:19:45.352Z,73570.50
2023-01-22T01:20:40.579Z,73584.50
2023-01-22T01:21:33.210Z,73580.50
2023-01-22T01:22:28.355Z,73580.50
2023-01-22T01:23:21.544Z,73586.47
2023-01-22T01:24:16.863Z,73586.47
2023-01-22T01:25:12.019Z,73582.50
2023-01-22T01:26:11.207Z,73580.50
2023-01-22T01:27:04.495Z,73580.50
2023-01-22T01:27:59.671Z,73572.50
2023-01-22T01:28:53.015Z,73568.50
2023-01-22T01:29:48.208Z,73568.50
2023-01-22T01:30:40.839Z,73568.50
2023-01-22T01:31:36.081Z,73560.53
2023-01-22T01:32:28.681Z,73562.53
2023-01-22T01:33:21.612Z,73560.53
2023-01-22T01:34:16.850Z,73552.53
2023-01-22T01:35:09.862Z,73560.53
2023-01-22T01:36:08.981Z,73552.53
2023-01-22T01:37:01.581Z,73564.53
2023-01-22T01:37:56.747Z,73558.53
2023-01-22T01:38:50.080Z,73558.53
2023-01-22T01:39:50.690Z,73552.53
2023-01-22T01:40:46.201Z,73552.53
2023-01-22T01:41:41.451Z,73540.56
2023-01-22T01:42:35.863Z,73544.56
2023-01-22T01:43:31.602Z,73540.56
2023-01-22T01:44:24.870Z,73532.59
2023-01-22T01:45:29.960Z,73532.59
2023-01-22T01:46:23.899Z,73524.59
2023-01-22T01:47:29.150Z,73528.59
2023-01-22T01:48:27.301Z,73524.59
2023-01-22T01:49:28.734Z,73516.59
2023-01-22T01:50:23.576Z,73520.59
2023-01-22T01:51:21.729Z,73514.63
2023-01-22T01:52:15.474Z,73518.59
2023-01-22T01:53:11.294Z,73518.59
2023-01-22T01:54:05.083Z,73518.59
2023-01-22T01:55:01.042Z,73516.59
2023-01-22T01:55:58.190Z,73512.63
2023-01-22T01:56:54.992Z,73516.59
2023-01-22T01:57:47.677Z,73514.63
2023-01-22T01:58:43.406Z,73516.59
2023-01-22T01:59:36.285Z,73522.59
2023-01-22T02:00:31.779Z,73528.59
2023-01-22T02:01:27.066Z,73528.59
2023-01-22T02:02:20.641Z,73536.56
2023-01-22T02:03:17.187Z,73542.56
2023-01-22T02:04:09.919Z,73540.56
2023-01-22T02:05:05.635Z,73532.59
2023-01-22T02:05:58.257Z,73544.56
2023-01-22T02:06:53.473Z,73538.56
2023-01-22T02:07:46.078Z,73534.56
2023-01-22T02:08:41.875Z,73526.59
2023-01-22T02:09:34.639Z,73526.59
2023-01-22T02:10:29.914Z,73526.59
2023-01-22T02:11:25.603Z,73524.59
2023-01-22T02:12:20.822Z,73516.59
2023-01-22T02:13:16.293Z,73528.59
2023-01-22T02:14:16.733Z,73524.59
2023-01-22T02:15:10.873Z,73520.59
2023-01-22T02:16:07.946Z,73516.59
2023-01-22T02:17:02.152Z,73520.59
2023-01-22T02:17:57.326Z,73522.59
2023-01-22T02:18:50.425Z,73516.59
2023-01-22T02:19:48.875Z,73512.63
2023-01-22T02:20:52.337Z,73524.59
2023-01-22T02:21:47.914Z,73520.59
2023-01-22T02:22:40.553Z,73518.59
2023-01-22T02:23:35.753Z,73516.59
2023-01-22T02:24:31.112Z,73522.59
2023-01-22T02:25:26.630Z,73520.59
2023-01-22T02:26:19.210Z,73528.59
2023-01-22T02:27:14.593Z,73528.59
2023-01-22T02:28:07.183Z,73532.59
2023-01-22T02:29:02.429Z,73538.56
2023-01-22T02:29:56.523Z,73548.56
2023-01-22T02:30:52.076Z,73552.53
2023-01-22T02:31:45.291Z,73564.53
2023-01-22T02:32:41.303Z,73576.50
2023-01-22T02:33:33.878Z,73580.50
2023-01-22T02:34:29.907Z,73586.47
2023-01-22T02:35:22.526Z,73586.47
2023-01-22T02:36:21.415Z,73580.50
2023-01-22T02:37:14.387Z,73578.50
2023-01-22T02:38:10.181Z,73568.50
2023-01-22T02:39:02.777Z,73568.50
2023-01-22T02:39:57.992Z,73578.50
2023-01-22T02:40:50.729Z,73576.50
2023-01-22T02:41:48.536Z,73572.50
2023-01-22T02:42:42.047Z,73576.50
2023-01-22T02:43:37.594Z,73588.47
2023-01-22T02:44:30.281Z,73582.50
2023-01-22T02:45:25.699Z,73584.50
2023-01-22T02:46:18.529Z,73590.47
2023-01-22T02:47:13.755Z,73584.50
2023-01-22T02:48:06.972Z,73582.50
2023-01-22T02:49:03.352Z,73572.50
2023-01-22T02:49:57.973Z,73572.50
2023-01-22T02:50:53.207Z,73564.53
2023-01-22T02:51:48.435Z,73558.53
2023-01-22T02:52:43.694Z,73560.53
2023-01-22T02:53:36.433Z,73560.53
2023-01-22T02:54:31.675Z,73560.53
2023-01-22T02:55:24.574Z,73544.56
2023-01-22T02:56:20.353Z,73552.53
2023-01-22T02:57:13.005Z,73552.53
2023-01-22T02:58:08.962Z,73544.56
2023-01-22T02:59:02.158Z,73544.56
2023-01-22T02:59:57.459Z,73544.56
2023-01-22T03:00:50.228Z,73552.53
2023-01-22T03:01:45.479Z,73548.56
2023-01-22T03:02:38.116Z,73562.53
2023-01-22T03:03:33.313Z,73564.53
2023-01-22T03:04:26.057Z,73572.50
2023-01-22T03:05:21.304Z,73576.50
2023-01-22T03:06:15.715Z,73570.50
2023-01-22T03:07:13.462Z,73572.50
2023-01-22T03:08:06.364Z,73572.50
2023-01-22T03:09:02.930Z,73570.50
2023-01-22T03:10:00.137Z,73578.50
2023-01-22T03:11:01.210Z,73582.50
2023-01-22T03:11:53.843Z,73586.47
2023-01-22T03:13:06.856Z,73582.50
2023-01-22T03:14:14.631Z,73572.50
2023-01-22T03:15:23.664Z,73572.50
2023-01-22T03:16:31.382Z,73572.50
2023-01-22T03:17:39.046Z,73568.50
2023-01-22T03:18:47.283Z,73560.53
2023-01-22T03:19:55.171Z,73562.53
2023-01-22T03:21:02.772Z,73558.53
2023-01-22T03:21:57.954Z,73548.56
2023-01-22T03:22:54.468Z,73552.53
2023-01-22T03:23:51.243Z,73544.56
2023-01-22T03:24:44.373Z,73546.56
2023-01-22T03:25:39.577Z,73540.56
2023-01-22T03:26:32.175Z,73536.56
2023-01-22T03:27:29.114Z,73540.56
2023-01-22T03:28:21.740Z,73534.56
2023-01-22T03:29:22.218Z,73544.56
2023-01-22T03:30:15.148Z,73536.56
2023-01-22T03:31:10.711Z,73552.53
2023-01-22T03:32:03.327Z,73546.56
2023-01-22T03:32:58.579Z,73556.53
2023-01-22T03:33:51.167Z,73564.53
2023-01-22T03:34:46.450Z,73564.53
2023-01-22T03:35:39.266Z,73568.50
2023-01-22T03:36:45.195Z,73568.50
2023-01-22T03:37:38.095Z,73568.50
2023-01-22T03:38:33.662Z,73566.53
2023-01-22T03:39:29.629Z,73564.53
2023-01-22T03:40:22.245Z,73560.53
2023-01-22T03:41:19.018Z,73568.50
2023-01-22T03:42:13.705Z,73568.50
2023-01-22T03:43:08.987Z,73570.50
2023-01-22T03:44:03.605Z,73566.53
2023-01-22T03:45:02.472Z,73568.50
2023-01-22T03:45:55.100Z,73568.50
2023-01-22T03:46:51.292Z,73566.53
2023-01-22T03:47:43.895Z,73578.50
2023-01-22T03:48:53.650Z,73568.50
2023-01-22T03:49:46.269Z,73566.53
2023-01-22T03:50:41.625Z,73566.53
2023-01-22T03:51:34.512Z,73564.53
2023-01-22T03:52:30.597Z,73568.50
2023-01-22T03:53:23.315Z,73556.53
2023-01-22T03:54:21.397Z,73556.53
2023-01-22T03:55:14.680Z,73560.53
2023-01-22T03:56:11.764Z,73564.53
2023-01-22T03:57:04.427Z,73556.53
2023-01-22T03:58:02.410Z,73560.53
2023-01-22T03:58:55.177Z,73552.53
2023-01-22T03:59:51.559Z,73558.53
2023-01-22T04:00:44.566Z,73560.53
2023-01-22T04:01:41.187Z,73556.53
2023-01-22T04:02:34.773Z,73560.53
2023-01-22T04:03:40.192Z,73560.53
2023-01-22T04:04:32.988Z,73560.53
2023-01-22T04:05:28.201Z,73560.53
2023-01-22T04:06:21.996Z,73564.53
2023-01-22T04:07:17.290Z,73560.53
2023-01-22T04:08:10.162Z,73564.53
2023-01-22T04:09:09.215Z,73568.50
2023-01-22T04:10:14.261Z,73560.53
2023-01-22T04:11:09.662Z,73564.53
2023-01-22T04:12:02.973Z,73564.53
2023-01-22T04:12:58.258Z,73560.53
2023-01-22T04:13:50.976Z,73568.50
2023-01-22T04:14:48.926Z,73560.53
2023-01-22T04:15:43.786Z,73572.50
2023-01-22T04:16:46.362Z,73568.50
2023-01-22T04:17:57.654Z,73566.53
2023-01-22T04:19:14.822Z,73562.53
2023-01-22T04:20:27.669Z,73566.53
2023-01-22T04:21:28.198Z,73564.53
2023-01-22T04:22:23.658Z,73564.53
2023-01-22T04:23:16.757Z,73564.53
2023-01-22T04:24:12.195Z,73560.53
2023-01-22T04:25:05.887Z,73564.53
2023-01-22T04:26:03.705Z,73560.53
2023-01-22T04:26:56.549Z,73564.53
2023-01-22T04:27:51.905Z,73564.53
2023-01-22T04:28:45.253Z,73564.53
2023-01-22T04:29:42.107Z,73560.53
2023-01-22T04:30:35.214Z,73564.53
2023-01-22T04:31:49.883Z,73568.50
2023-01-22T04:33:17.501Z,73572.50
2023-01-22T04:34:24.548Z,73562.53
2023-01-22T04:35:27.254Z,73562.53
2023-01-22T04:36:26.957Z,73562.53
2023-01-22T04:37:20.719Z,73564.53
2023-01-22T04:38:14.008Z,73564.53
2023-01-22T04:39:10.198Z,73564.53
2023-01-22T04:40:02.931Z,73564.53
2023-01-22T04:40:58.173Z,73568.50
2023-01-22T04:41:53.353Z,73572.50
2023-01-22T04:42:48.620Z,73580.50
2023-01-22T04:43:41.222Z,73576.50
2023-01-22T04:44:36.427Z,73588.47
2023-01-22T04:45:29.049Z,73590.47
2023-01-22T04:46:24.389Z,73600.47
2023-01-22T04:47:17.926Z,73612.44
2023-01-22T04:48:14.176Z,73616.44
2023-01-22T04:49:08.870Z,73628.41
2023-01-22T04:50:04.680Z,73636.41
2023-01-22T04:50:58.769Z,73648.38
2023-01-22T04:51:57.502Z,73658.34
2023-01-22T04:52:51.477Z,73670.34
2023-01-22T04:53:47.692Z,73676.31
2023-01-22T04:54:40.355Z,73684.31
2023-01-22T04:55:36.422Z,73696.28
2023-01-22T04:56:33.796Z,73696.28
2023-01-22T04:57:31.699Z,73700.28
2023-01-22T04:58:24.281Z,73710.25
2023-01-22T04:59:21.339Z,73714.25
2023-01-22T05:00:15.271Z,73724.22
2023-01-22T05:01:10.674Z,73728.22
2023-01-22T05:02:05.740Z,73732.22
2023-01-22T05:03:02.314Z,73744.19
2023-01-22T05:03:55.839Z,73744.19
2023-01-22T05:04:51.046Z,73746.19
2023-01-22T05:05:43.613Z,73748.19
2023-01-22T05:06:39.470Z,73758.19
2023-01-22T05:07:32.126Z,73756.19
2023-01-22T05:08:27.535Z,73756.19
2023-01-22T05:09:20.687Z,73760.16
2023-01-22T05:10:21.460Z,73760.16
2023-01-22T05:11:15.099Z,73768.16
2023-01-22T05:12:15.645Z,73770.16
2023-01-22T05:13:11.609Z,73778.13
2023-01-22T05:14:10.345Z,73774.16
2023-01-22T05:15:07.272Z,73780.13
2023-01-22T05:16:08.126Z,73776.16
2023-01-22T05:17:01.540Z,73784.13
2023-01-22T05:17:56.787Z,73782.13
2023-01-22T05:18:49.347Z,73790.13
2023-01-22T05:19:44.528Z,73800.09
2023-01-22T05:20:42.645Z,73792.13
2023-01-22T05:21:39.654Z,73796.09
2023-01-22T05:22:32.640Z,73800.09
2023-01-22T05:23:27.809Z,73798.09
2023-01-22T05:24:21.125Z,73800.09
2023-01-22T05:25:16.432Z,73798.09
2023-01-22T05:26:09.042Z,73808.09
2023-01-22T05:27:18.847Z,73804.09
2023-01-22T05:28:21.645Z,73808.09
2023-01-22T05:29:28.188Z,73808.09
2023-01-22T05:30:29.790Z,73816.06
2023-01-22T05:31:29.179Z,73812.09
2023-01-22T05:32:30.188Z,73812.09
2023-01-22T05:33:25.391Z,73816.06
2023-01-22T05:34:18.320Z,73810.09
2023-01-22T05:35:14.093Z,73812.09
2023-01-22T05:36:07.834Z,73810.09
2023-01-22T05:37:03.485Z,73814.06
2023-01-22T05:37:58.092Z,73812.09
2023-01-22T05:38:50.739Z,73812.09
2023-01-22T05:39:46.691Z,73812.09
2023-01-22T05:40:40.980Z,73812.09
2023-01-22T05:41:37.133Z,73820.06
2023-01-22T05:42:29.716Z,73812.09
2023-01-22T05:43:27.555Z,73812.09
2023-01-22T05:44:26.304Z,73812.09
2023-01-22T05:45:23.019Z,73812.09
2023-01-22T05:46:41.829Z,73816.06
2023-01-22T05:48:03.179Z,73816.06
2023-01-22T05:49:14.431Z,73808.09
2023-01-22T05:50:11.196Z,73816.06
2023-01-22T05:51:04.824Z,73812.09
2023-01-22T05:52:00.189Z,73812.09
2023-01-22T05:52:55.058Z,73816.06
2023-01-22T05:53:50.252Z,73816.06
2023-01-22T05:54:43.000Z,73820.06
2023-01-22T05:55:38.667Z,73820.06
2023-01-22T05:56:31.743Z,73818.06
2023-01-22T05:57:27.979Z,73824.06
2023-01-22T05:58:20.555Z,73820.06
2023-01-22T05:59:19.034Z,73820.06
2023-01-22T06:00:20.140Z,73828.06
2023-01-22T06:01:23.125Z,73826.06
2023-01-22T06:02:18.043Z,73826.06
2023-01-22T06:03:14.003Z,73824.06
2023-01-22T06:04:12.935Z,73824.06
2023-01-22T06:05:09.631Z,73828.06
2023-01-22T06:06:03.851Z,73828.06
2023-01-22T06:06:59.140Z,73832.03
2023-01-22T06:07:54.487Z,73832.03
2023-01-22T06:08:55.437Z,73840.03
2023-01-22T06:09:49.477Z,73844.03
2023-01-22T06:10:45.619Z,73836.03
2023-01-22T06:11:39.240Z,73840.03
2023-01-22T06:12:34.672Z,73840.03
2023-01-22T06:13:27.478Z,73844.03
2023-01-22T06:14:28.792Z,73840.03
2023-01-22T06:15:23.870Z,73836.03
2023-01-22T06:16:28.661Z,73840.03
2023-01-22T06:17:23.866Z,73848.03
2023-01-22T06:18:24.483Z,73846.03
2023-01-22T06:19:17.080Z,73854.00
2023-01-22T06:20:22.700Z,73844.03
2023-01-22T06:21:15.882Z,73844.03
2023-01-22T06:22:11.283Z,73846.03
2023-01-22T06:23:11.242Z,73850.00
2023-01-22T06:24:06.871Z,73844.03
2023-01-22T06:24:59.559Z,73844.03
2023-01-22T06:26:09.069Z,73848.03
2023-01-22T06:27:01.703Z,73850.00
2023-01-22T06:28:06.093Z,73852.00
2023-01-22T06:28:59.367Z,73852.00
2023-01-22T06:29:57.253Z,73850.00
2023-01-22T06:30:50.163Z,73858.00
2023-01-22T06:31:46.127Z,73850.00
2023-01-22T06:32:42.915Z,73856.00
2023-01-22T06:33:41.348Z,73864.00
2023-01-22T06:34:34.232Z,73854.00
2023-01-22T06:35:31.118Z,73858.00
2023-01-22T06:36:23.763Z,73862.00
2023-01-22T06:37:19.013Z,73867.97
2023-01-22T06:38:12.144Z,73858.00
2023-01-22T06:39:07.708Z,73864.00
2023-01-22T06:40:06.520Z,73860.00
2023-01-22T06:41:12.437Z,73864.00
2023-01-22T06:42:05.431Z,73860.00
2023-01-22T06:43:00.697Z,73866.00
2023-01-22T06:43:54.488Z,73871.97
2023-01-22T06:44:50.928Z,73864.00
2023-01-22T06:45:47.676Z,73866.00
2023-01-22T06:46:43.296Z,73864.00
2023-01-22T06:47:43.987Z,73866.00
2023-01-22T06:48:43.652Z,73867.97
2023-01-22T06:49:36.218Z,73867.97
2023-01-22T06:50:31.399Z,73860.00
2023-01-22T06:51:24.063Z,73871.97
2023-01-22T06:52:19.270Z,73867.97
2023-01-22T06:53:12.115Z,73867.97
2023-01-22T06:54:07.818Z,73871.97
2023-01-22T06:55:00.408Z,73867.97
2023-01-22T06:55:55.730Z,73871.97
2023-01-22T06:56:48.384Z,73867.97
2023-01-22T06:57:46.027Z,73858.00
2023-01-22T06:58:41.252Z,73862.00
2023-01-22T06:59:35.673Z,73869.97
2023-01-22T07:00:32.398Z,73866.00
2023-01-22T07:01:27.617Z,73862.00
2023-01-22T07:02:23.044Z,73867.97
2023-01-22T07:03:16.552Z,73871.97
2023-01-22T07:04:11.759Z,73869.97
2023-01-22T07:05:04.641Z,73867.97
2023-01-22T07:06:00.733Z,73869.97
2023-01-22T07:06:53.315Z,73869.97
2023-01-22T07:07:48.850Z,73867.97
2023-01-22T07:08:41.423Z,73869.97
2023-01-22T07:09:36.602Z,73871.97
2023-01-22T07:10:29.289Z,73873.97
2023-01-22T07:11:24.477Z,73871.97
2023-01-22T07:12:17.043Z,73875.97
2023-01-22T07:13:14.370Z,73871.97
2023-01-22T07:14:06.914Z,73875.97
2023-01-22T07:15:02.109Z,73871.97
2023-01-22T07:15:54.879Z,73869.97
2023-01-22T07:16:52.789Z,73867.97
2023-01-22T07:17:50.299Z,73867.97
2023-01-22T07:18:45.460Z,73867.97
2023-01-22T07:19:38.057Z,73867.97
2023-01-22T07:20:33.248Z,73871.97
2023-01-22T07:21:27.276Z,73871.97
2023-01-22T07:22:22.555Z,73871.97
2023-01-22T07:23:15.174Z,73866.00
2023-01-22T07:24:10.384Z,73867.97
2023-01-22T07:25:03.256Z,73875.97
2023-01-22T07:25:58.644Z,73875.97
2023-01-22T07:26:51.288Z,73883.94
2023-01-22T07:27:46.511Z,73877.97
2023-01-22T07:28:39.432Z,73883.94
2023-01-22T07:29:34.604Z,73887.94
2023-01-22T07:30:27.403Z,73879.97
2023-01-22T07:31:22.722Z,73885.94
2023-01-22T07:32:17.956Z,73883.94
2023-01-22T07:33:14.264Z,73889.94
2023-01-22T07:34:07.694Z,73891.94
2023-01-22T07:35:02.865Z,73891.94
2023-01-22T07:35:56.288Z,73895.94
2023-01-22T07:36:51.607Z,73895.94
2023-01-22T07:37:44.197Z,73895.94
2023-01-22T07:38:39.391Z,73899.94
2023-01-22T07:39:31.984Z,73893.94
2023-01-22T07:40:27.592Z,73903.91
2023-01-22T07:41:26.114Z,73907.91
2023-01-22T07:42:21.569Z,73903.91
2023-01-22T07:43:15.270Z,73905.91
2023-01-22T07:44:10.773Z,73907.91
2023-01-22T07:45:03.715Z,73907.91
2023-01-22T07:45:59.262Z,73907.91
2023-01-22T07:46:51.858Z,73911.91
2023-01-22T07:47:54.566Z,73915.91
2023-01-22T07:48:47.158Z,73917.91
2023-01-22T07:49:42.312Z,73911.91
2023-01-22T07:50:36.962Z,73921.88
2023-01-22T07:51:32.119Z,73911.91
2023-01-22T07:52:24.738Z,73913.91
2023-01-22T07:53:19.983Z,73915.91
2023-01-22T07:54:12.564Z,73917.91
2023-01-22T07:55:09.083Z,73915.91
2023-01-22T07:56:02.012Z,73917.91
2023-01-22T07:56:57.184Z,73915.91
2023-01-22T07:57:49.775Z,73915.91
2023-01-22T07:58:44.943Z,73913.91
2023-01-22T07:59:37.486Z,73907.91
2023-01-22T08:00:32.917Z,73911.91
2023-01-22T08:01:25.554Z,73919.91
2023-01-22T08:02:20.755Z,73911.91
2023-01-22T08:03:16.179Z,73907.91
2023-01-22T08:04:11.381Z,73911.91
2023-01-22T08:05:04.451Z,73915.91
2023-01-22T08:05:59.615Z,73913.91
2023-01-22T08:06:52.335Z,73921.88
2023-01-22T08:07:47.523Z,73923.88
2023-01-22T08:08:40.145Z,73915.91
2023-01-22T08:09:35.529Z,73923.88
2023-01-22T08:10:28.244Z,73915.91
2023-01-22T08:11:23.409Z,73921.88
2023-01-22T08:12:15.948Z,73923.88
2023-01-22T08:13:11.147Z,73915.91
2023-01-22T08:14:03.704Z,73923.88
2023-01-22T08:14:58.920Z,73931.88
2023-01-22T08:15:51.521Z,73937.88
2023-01-22T08:16:46.823Z,73935.88
2023-01-22T08:17:39.765Z,73935.88
2023-01-22T08:18:37.572Z,73939.84
2023-01-22T08:19:30.256Z,73939.84
2023-01-22T08:20:25.746Z,73939.84
2023-01-22T08:21:18.318Z,73941.84
2023-01-22T08:22:13.498Z,73941.84
2023-01-22T08:23:06.092Z,73939.84
2023-01-22T08:24:01.259Z,73935.88
2023-01-22T08:24:54.213Z,73945.84
2023-01-22T08:25:49.394Z,73939.84
2023-01-22T08:26:41.974Z,73947.84
2023-01-22T08:27:37.917Z,73939.84
2023-01-22T08:28:31.348Z,73947.84
2023-01-22T08:29:26.543Z,73951.84
2023-01-22T08:30:19.602Z,73943.84
2023-01-22T08:31:27.007Z,73953.84
2023-01-22T08:32:20.733Z,73947.84
2023-01-22T08:33:16.061Z,73955.84
2023-01-22T08:34:11.277Z,73957.81
2023-01-22T08:35:06.608Z,73951.84
2023-01-22T08:35:59.388Z,73955.84
2023-01-22T08:36:54.579Z,73951.84
2023-01-22T08:37:47.214Z,73951.84
2023-01-22T08:38:42.375Z,73929.88
2023-01-22T08:39:34.935Z,73915.91
2023-01-22T08:40:30.187Z,73905.91
2023-01-22T08:41:23.499Z,73895.94
2023-01-22T08:42:18.750Z,73883.94
2023-01-22T08:43:11.337Z,73871.97
2023-01-22T08:44:06.619Z,73864.00
2023-01-22T08:44:59.310Z,73848.03
2023-01-22T08:45:54.538Z,73836.03
2023-01-22T08:46:47.129Z,73822.06
2023-01-22T08:47:42.309Z,73814.06
2023-01-22T08:48:34.907Z,73802.09
2023-01-22T08:49:33.366Z,73788.13
2023-01-22T08:50:26.128Z,73774.16
2023-01-22T08:51:22.801Z,73764.16
2023-01-22T08:52:15.403Z,73756.19
2023-01-22T08:53:10.589Z,73744.19
2023-01-22T08:54:03.201Z,73736.22
2023-01-22T08:54:58.360Z,73736.22
2023-01-22T08:55:50.933Z,73720.25
2023-01-22T08:56:46.827Z,73720.25
2023-01-22T08:57:39.419Z,73716.25
2023-01-22T08:58:34.608Z,73724.22
2023-01-22T08:59:28.831Z,73724.22
2023-01-22T09:00:25.926Z,73738.22
2023-01-22T09:01:19.842Z,73740.22
2023-01-22T09:02:15.266Z,73748.19
2023-01-22T09:03:07.910Z,73768.16
2023-01-22T09:04:03.329Z,73774.16
2023-01-22T09:04:58.515Z,73792.13
2023-01-22T09:05:53.918Z,73796.09
2023-01-22T09:06:46.629Z,73814.06
2023-01-22T09:07:41.805Z,73818.06
2023-01-22T09:08:34.450Z,73828.06
2023-01-22T09:09:29.699Z,73840.03
2023-01-22T09:10:22.545Z,73854.00
2023-01-22T09:11:17.892Z,73860.00
2023-01-22T09:12:10.490Z,73864.00
2023-01-22T09:13:05.676Z,73873.97
2023-01-22T09:13:58.439Z,73877.97
2023-01-22T09:14:53.593Z,73883.94
2023-01-22T09:15:46.160Z,73883.94
2023-01-22T09:16:41.676Z,73891.94
2023-01-22T09:17:34.297Z,73885.94
2023-01-22T09:18:29.598Z,73887.94
2023-01-22T09:19:22.142Z,73893.94
2023-01-22T09:20:20.802Z,73899.94
2023-01-22T09:21:16.115Z,73903.91
2023-01-22T09:22:08.683Z,73903.91
2023-01-22T09:23:03.854Z,73903.91
2023-01-22T09:23:56.411Z,73907.91
2023-01-22T09:24:51.555Z,73915.91
2023-01-22T09:25:44.145Z,73923.88
2023-01-22T09:26:40.747Z,73927.88
2023-01-22T09:27:33.337Z,73927.88
2023-01-22T09:28:28.504Z,73919.91
2023-01-22T09:29:21.030Z,73923.88
2023-01-22T09:30:17.271Z,73935.88
2023-01-22T09:31:13.165Z,73931.88
2023-01-22T09:32:08.894Z,73931.88
2023-01-22T09:33:01.581Z,73935.88
2023-01-22T09:33:57.686Z,73929.88
2023-01-22T09:34:50.238Z,73937.88
2023-01-22T09:35:48.049Z,73943.84
2023-01-22T09:36:41.918Z,73939.84
2023-01-22T09:37:37.286Z,73939.84
2023-01-22T09:38:29.856Z,73943.84
2023-01-22T09:39:25.018Z,73939.84
2023-01-22T09:40:24.975Z,73949.84
2023-01-22T09:41:25.735Z,73947.84
2023-01-22T09:42:24.809Z,73943.84
2023-01-22T09:43:26.101Z,73941.84
2023-01-22T09:44:23.162Z,73947.84
2023-01-22T09:45:17.253Z,73953.84
2023-01-22T09:46:16.905Z,73951.84
2023-01-22T09:47:12.563Z,73949.84
2023-01-22T09:48:10.932Z,73949.84
2023-01-22T09:49:08.530Z,73955.84
2023-01-22T09:50:08.901Z,73959.81
2023-01-22T09:51:05.567Z,73955.84
2023-01-22T09:52:04.967Z,73955.84
2023-01-22T09:52:59.987Z,73959.81
2023-01-22T09:53:59.593Z,73959.81
2023-01-22T09:54:52.162Z,73955.84
2023-01-22T09:55:50.170Z,73951.84
2023-01-22T09:56:46.820Z,73951.84
2023-01-22T09:57:40.808Z,73955.84
2023-01-22T09:58:37.495Z,73947.84
2023-01-22T09:59:34.155Z,73955.84
2023-01-22T10:00:35.183Z,73951.84
2023-01-22T10:01:27.948Z,73951.84
2023-01-22T10:02:27.448Z,73935.88
2023-01-22T10:03:25.544Z,73923.88
2023-01-22T10:04:30.182Z,73911.91
2023-01-22T10:05:29.985Z,73897.94
2023-01-22T10:06:30.056Z,73891.94
2023-01-22T10:07:26.854Z,73879.97
2023-01-22T10:08:24.961Z,73875.97
2023-01-22T10:09:20.029Z,73871.97
2023-01-22T10:10:22.747Z,73852.00
2023-01-22T10:11:15.374Z,73842.03
2023-01-22T10:12:15.616Z,73826.06
2023-01-22T10:13:19.013Z,73824.06
2023-01-22T10:14:19.218Z,73820.06
2023-01-22T10:15:14.952Z,73806.09
2023-01-22T10:16:10.659Z,73800.09
2023-01-22T10:17:04.009Z,73798.09
2023-01-22T10:18:00.243Z,73790.13
2023-01-22T10:18:56.787Z,73784.13
2023-01-22T10:19:55.678Z,73784.13
2023-01-22T10:20:49.267Z,73772.16
2023-01-22T10:21:49.125Z,73776.16
2023-01-22T10:22:41.831Z,73764.16
2023-01-22T10:23:37.451Z,73768.16
2023-01-22T10:24:30.338Z,73768.16
2023-01-22T10:25:25.573Z,73766.16
2023-01-22T10:26:22.144Z,73766.16
2023-01-22T10:27:19.241Z,73756.19
2023-01-22T10:28:12.275Z,73758.19
2023-01-22T10:29:09.378Z,73752.19
2023-01-22T10:30:03.815Z,73752.19
2023-01-22T10:31:00.572Z,73752.19
2023-01-22T10:31:55.840Z,73752.19
2023-01-22T10:33:01.558Z,73748.19
2023-01-22T10:34:01.387Z,73750.19
2023-01-22T10:35:02.181Z,73748.19
2023-01-22T10:35:59.619Z,73748.19
2023-01-22T10:36:55.314Z,73740.22
2023-01-22T10:37:52.001Z,73750.19
2023-01-22T10:38:44.557Z,73746.19
2023-01-22T10:39:43.390Z,73742.19
2023-01-22T10:40:38.138Z,73744.19
2023-01-22T10:41:33.782Z,73740.22
2023-01-22T10:42:27.498Z,73738.22
2023-01-22T10:43:22.700Z,73738.22
2023-01-22T10:44:22.751Z,73736.22
2023-01-22T10:45:20.076Z,73736.22
2023-01-22T10:46:23.504Z,73734.22
2023-01-22T10:47:20.776Z,73732.22
2023-01-22T10:48:17.571Z,73738.22
2023-01-22T10:49:16.059Z,73736.22
2023-01-22T10:50:18.005Z,73726.22
2023-01-22T10:51:15.167Z,73728.22
2023-01-22T10:52:30.610Z,73728.22
2023-01-22T10:53:27.288Z,73726.22
2023-01-22T10:54:25.191Z,73724.22
2023-01-22T10:55:22.274Z,73724.22
2023-01-22T10:56:28.391Z,73720.25